Data from Weather Station test

Home
 
SELECT id, temp_in, temp_out, humid, atmos, rain, time FROM wx_data WHERE device_id = 3
 
ID
(int)
TEMP_IN
(int)
TEMP_OUT
(int)
HUMID
(int)
ATMOS
(int)
RAIN
(int)
TIME
(timestamp)
990  254  220  60  1015  2019-01-23 08:51:59 
991  261  222  57  1016  2019-01-20 18:37:54 
992  256  212  63  1016  2019-01-20 19:01:23 
993  251  202  64  1015  2019-01-20 20:01:23 
994  250  201  64  1015  2019-01-20 20:19:06 
995  246  191  64  1016  2019-01-20 21:01:23 
996  241  185  60  1015  2019-01-20 22:01:24 
997  236  172  60  1015  2019-01-23 08:47:58 
998  233  161  60  1014  2019-01-23 08:51:11 
999  228  156  60  1013  2019-01-23 08:51:26 
1000  225  146  57  1013  2019-01-23 08:51:44 
1001  222  140  56  1011  2019-01-21 03:01:23 
1002  221  140  56  1011  2019-01-23 08:59:11 
1003  215  126  56  1011  2019-01-21 05:01:25 
1004  211  120  56  1013  2019-01-21 06:01:23 
1005  211  140  57  1013  2019-01-21 07:01:24 
1006  216  179  61  1013  2019-01-23 08:50:14 
1007  226  250  63  1014  2019-01-23 08:50:38 
1008  236  276  64  1015  2019-01-21 11:01:25 
1009  241  295  62  1014  2019-01-21 12:01:22 
1010  242  302  53  1014  2019-01-21 13:01:24 
1011  248  296  52  1012  2019-01-21 14:01:26 
1012  255  312  52  1013  2019-01-21 15:01:23 
1013  252  268  51  1013  2019-01-21 16:01:24 
1014  257  273  51  1013  2019-01-21 17:01:26 
1015  258  265  50  1013  2019-01-21 18:01:24 
1016  258  245  51  1013  2019-01-21 19:01:25 
1017  252  228  53  1014  2019-01-21 20:01:22 
1018  250  221  55  1015  2019-01-21 21:01:24 
1019  247  216  57  1015  2019-01-21 22:01:25 
1020  246  216  60  1017  2019-01-21 23:01:23 
1021  246  216  61  1016  2019-01-22 00:01:24 
1022  244  211  63  1015  2019-01-22 01:01:25 
1023  244  211  62  1015  2019-01-22 02:01:23 
1024  244  205  62  1015  2019-01-22 03:01:24 
1025  241  186  63  1015  2019-01-22 04:01:25 
1026  238  181  62  1015  2019-01-22 05:01:23 
1027  239  185  62  1016  2019-01-22 06:01:24 
1028  237  191  62  1016  2019-01-22 07:01:26 
1029  236  196  61  1017  2019-01-23 09:02:39 
1030  241  211  61  1016  2019-01-23 09:03:18 
1031  241  229  61  1016  2019-01-23 09:04:02 
1032  242  216  60  1016  2019-01-22 10:01:23 
1033  251  249  57  1016  2019-01-22 11:01:25 
1034  254  256  57  1016  2019-01-22 12:01:26 
1035  261  251  55  1016  2019-01-22 13:01:23 
1036  266  276  53  1015  2019-01-22 14:01:25 
1037  274  272  52  1015  2019-01-22 15:01:22 
1038  280  273  46  1014  2019-01-22 16:01:24 
1039  281  264  44  1014  2019-01-22 17:01:25 
1040  271  236  42  1014  2019-01-22 18:01:22 
1041  266  211  45  1015  2019-01-22 19:01:24 
1042  259  196  46  1017  2019-01-22 20:01:25 
1043  259  191  50  1017  2019-01-22 21:01:23 
1044  255  186  51  1017  2019-01-22 22:01:24 
1045  251  181  51  1017  2019-01-22 23:01:26 
1046  247  181  54  1017  2019-01-23 00:01:23 
1047  244  181  54  1017  2019-01-23 01:01:25 
1048  241  167  54  1017  2019-01-23 02:01:22 
1049  236  161  54  1016  2019-01-23 03:01:24 
1050  236  160  55  1016  2019-01-23 04:01:26 
1051  231  161  56  1016  2019-01-23 05:01:23 
1052  228  168  57  1017  2019-01-23 06:01:24 
1053  230  171  60  1017  2019-01-23 07:01:25 
1054  231  186  63  1018  2019-01-23 08:01:22 
1055  234  203  61  1018  2019-01-23 09:01:24 
1056  241  221  56  1018  2019-01-23 10:01:26 
1057  244  212  56  1019  2019-01-23 11:01:24 
1058  251  251  55  1019  2019-01-23 12:01:25 
1059  256  212  55  1019  2019-01-23 13:01:23 
1060  259  239  53  1019  2019-01-23 14:01:25 
1061  260  216  52  1019  2019-01-23 15:01:26 
1062  265  236  51  1019  2019-01-23 16:01:23 
1063  266  211  50  1019  2019-01-23 17:01:25 
1064  261  200  50  1019  2019-01-23 18:01:22 
1065  261  191  50  1020  2019-01-23 19:01:24 
1066  256  182  50  1021  2019-01-23 20:01:25 
1067  253  181  50  1020  2019-01-23 21:01:22 
1068  251  181  50  1021  2019-01-23 22:01:24 
1069  245  176  51  1022  2019-01-23 23:01:25 
1070  241  176  52  1021  2019-01-24 00:01:23 
1071  236  175  53  1020  2019-01-24 01:01:24 
1072  235  174  53  1019  2019-01-24 02:01:26 
1073  231  171  53  1018  2019-01-24 03:01:23 
1074  229  171  54  1019  2019-01-24 04:01:24 
1075  226  171  55  1019  2019-01-24 05:01:26 
1076  225  176  56  1018  2019-01-24 06:01:23 
1077  225  181  56  1019  2019-01-24 07:01:25 
1078  223  187  56  1019  2019-01-24 08:01:26 
1079  226  206  56  1019  2019-01-24 09:01:23 
1080  231  221  55  1019  2019-01-24 10:01:25 
1081  236  227  56  1018  2019-01-24 11:01:22 
1082  241  227  57  1019  2019-01-24 12:01:24 
1083  245  226  56  1018  2019-01-24 13:01:25 
1084  251  226  55  1018  2019-01-24 14:01:23 
1085  256  226  54  1018  2019-01-24 15:01:24 
1086  259  229  53  1018  2019-01-24 16:01:26 
1087  260  211  53  1018  2019-01-24 17:01:23 
1088  254  201  53  1018  2019-01-24 18:01:24 
1089  253  191  54  1018  2019-01-24 19:01:26 
1090  251  181  53  1017  2019-01-24 20:01:24 
1091  246  177  53  1018  2019-01-24 21:01:25 
1092  241  176  53  1018  2019-01-24 22:01:23 
1093  236  176  54  1018  2019-01-24 23:01:24 
1094  233  172  54  1018  2019-01-25 00:01:26 
1095  229  171  54  1017  2019-01-25 01:01:23 
1096  228  171  55  1016  2019-01-25 02:01:25 
1097  226  171  55  1017  2019-01-25 03:01:26 
1098  224  166  56  1017  2019-01-25 04:01:24 
1099  222  169  56  1017  2019-01-25 05:01:25 
1100  221  167  56  1017  2019-01-25 06:01:26 
1101  221  176  57  1018  2019-01-25 07:01:23 
1102  221  186  57  1017  2019-01-25 08:01:25 
1103  226  206  56  1017  2019-01-25 09:01:26 
1104  229  221  56  1018  2019-01-25 10:01:23 
1105  237  235  57  1017  2019-01-25 11:01:25 
1106  242  226  57  1017  2019-01-25 12:01:26 
1107  246  232  60  1018  2019-01-25 13:01:23 
1108  251  221  60  1017  2019-01-25 14:01:25 
1109  256  226  57  1017  2019-01-25 15:01:22 
1110  261  223  56  1017  2019-01-25 16:01:23 
1111  263  212  56  1018  2019-01-25 17:01:25 
1112  261  206  57  1017  2019-01-25 18:01:26 
1113  260  195  61  1018  2019-01-25 19:01:23 
1114  256  187  63  1018  2019-01-25 20:01:25 
1115  249  186  64  1018  2019-01-25 21:01:22 
1116  246  186  65  1017  2019-01-25 22:01:24 
1117  241  181  65  1018  2019-01-25 23:01:22 
1118  238  181  64  1017  2019-01-26 00:01:24 
1119  236  180  64  1018  2019-01-26 01:01:26 
1120  233  179  64  1017  2019-01-26 02:01:23 
1121  232  176  64  1016  2019-01-26 03:01:25 
1122  231  178  64  1016  2019-01-26 04:01:26 
1123  226  187  63  1016  2019-01-26 05:01:23 
1124  226  188  62  1016  2019-01-26 06:01:24 
1125  224  185  63  1015  2019-01-26 07:01:26 
1126  231  208  64  1016  2019-01-26 08:01:23 
1127  233  231  63  1017  2019-01-26 09:01:24 
1128  236  256  62  1017  2019-01-26 10:01:26 
1129  245  285  57  1017  2019-01-26 11:01:23 
1130  245  305  53  1016  2019-01-26 12:01:25 
1131  256  301  51  1015  2019-01-26 13:01:23 
1132  253  289  60  1016  2019-01-26 14:01:24 
1133  246  272  61  1016  2019-01-26 15:01:26 
1134  248  268  60  1016  2019-01-26 16:01:23 
1135  251  261  57  1015  2019-01-26 17:01:25 
1136  253  251  60  1014  2019-01-26 18:01:24 
1137  253  244  60  1015  2019-01-26 19:01:25 
1138  253  232  60  1015  2019-01-26 20:01:23 
1139  252  222  60  1016  2019-01-26 21:01:24 
1140  251  211  60  1016  2019-01-26 22:01:26 
1141  251  206  61  1016  2019-01-26 23:01:24 
1142  250  198  62  1016  2019-01-27 00:01:25 
1143  247  197  62  1016  2019-01-27 01:01:26 
1144  246  195  62  1015  2019-01-27 02:01:24 
1145  246  191  62  1015  2019-01-27 03:01:25 
1146  246  191  63  1015  2019-01-27 04:01:23 
1147  241  191  63  1015  2019-01-27 05:01:24 
1148  241  186  64  1016  2019-01-27 06:01:26 
1149  238  195  64  1016  2019-01-27 07:01:23 
1150  239  205  67  1016  2019-01-27 08:01:25 
1151  240  225  66  1016  2019-01-27 09:01:22 
1152  241  241  65  1016  2019-01-27 10:01:24 
1153  243  251  64  1016  2019-01-27 11:01:25 
1154  242  249  65  1016  2019-01-27 12:01:23 
1155  246  251  65  1014  2019-01-27 13:01:24 
1156  246  253  64  1015  2019-01-27 14:01:26 
1157  247  246  64  1014  2019-01-27 15:01:24 
1158  249  238  64  1014  2019-01-27 16:01:25 
1159  252  224  64  1015  2019-01-27 17:01:23 
1160  252  216  64  1014  2019-01-27 18:01:24 
1161  252  206  65  1014  2019-01-27 19:01:26 
1162  251  200  64  1015  2019-01-27 20:01:23 
1163  242  199  65  1015  2019-01-27 21:01:25 
1164  247  211  64  1015  2019-01-27 22:01:26 
1165  246  221  63  1015  2019-01-27 23:01:24 
1166  246  221  62  1014  2019-01-28 00:01:25 
1167  245  225  62  1013  2019-01-28 01:01:23 
1168  242  214  62  1012  2019-01-28 02:01:24 
1169  246  214  62  1012  2019-01-28 03:01:26 
1170  241  212  62  1011  2019-01-28 04:01:23 
1171  241  216  62  1010  2019-01-28 05:01:25 
1172  240  210  61  1010  2019-01-28 06:01:22 
1173  241  206  62  1010  2019-01-28 07:01:24 
1174  241  232  62  1010  2019-01-28 08:01:25 
1175  246  256  62  1009  2019-01-28 09:01:23 
1176  243  286  60  1010  2019-01-28 10:01:24 
1177  248  317  56  1009  2019-01-28 11:01:26 
1178  248  335  54  1009  2019-01-28 12:01:24 
1179  252  320  56  1007  2019-01-28 13:01:25 
1180  256  316  56  1008  2019-01-28 13:07:20 
1181  253  300  55  1007  2019-01-28 14:01:24 
1182  257  291  54  1007  2019-01-28 15:01:25 
1183  261  286  53  1007  2019-01-28 16:01:23 
1184  281  285  52  1006  2019-01-28 17:01:24 
1185  279  269  54  1004  2019-01-28 18:01:26 
1186  269  262  56  1005  2019-01-28 19:01:23 
1187  268  254  56  1005  2019-01-28 20:01:25 
1188  266  241  57  1004  2019-01-28 21:01:22 
1189  264  235  60  1006  2019-01-28 22:01:24 
1190  261  223  57  1006  2019-01-28 23:01:25 
1191  264  217  57  1005  2019-01-29 00:01:22 
1192  260  210  60  1006  2019-01-29 01:01:24 
1193  261  200  61  1006  2019-01-29 02:01:25 
1194  256  187  61  1006  2019-01-29 03:01:23 
1195  256  184  61  1007  2019-01-29 04:01:24 
1196  251  187  60  1008  2019-01-29 05:01:25 
1197  251  181  60  1008  2019-01-29 06:01:23 
1198  251  186  61  1008  2019-01-29 07:01:24 
1199  242  201  63  1009  2019-01-29 08:01:25 
1200  246  228  62  1010  2019-01-29 09:01:23 
1201  249  258  61  1010  2019-01-29 10:01:24 
1202  251  276  61  1011  2019-01-29 11:01:26 
1203  256  286  61  1011  2019-01-29 12:01:23 
1204  258  302  55  1011  2019-01-29 13:01:24 
1205  261  315  56  1011  2019-01-29 14:01:26 
1206  261  320  55  1011  2019-01-29 15:01:24 
1207  281  329  54  1010  2019-01-29 16:01:26 
1208  275  297  54  1009  2019-01-29 17:01:24 
1209  277  281  55  1009  2019-01-29 18:01:25 
1210  281  256  56  1011  2019-01-29 19:01:23 
1211  275  227  61  1012  2019-01-29 20:01:24 
1212  266  221  61  1013  2019-01-29 21:01:26 
1213  258  216  62  1013  2019-01-29 22:01:23 
1214  261  208  61  1014  2019-01-29 23:01:24 
1215  263  211  62  1014  2019-01-30 00:01:26 
1216  261  211  62  1014  2019-01-30 01:01:23 
1217  261  206  62  1013  2019-01-30 02:01:25 
1218  258  201  62  1013  2019-01-30 03:01:26 
1219  256  191  62  1013  2019-01-30 04:01:24 
1220  251  196  62  1012  2019-01-30 05:01:25 
1221  251  186  62  1014  2019-01-30 06:01:22 
1222  251  196  63  1014  2019-01-30 07:01:24 
1223  241  206  66  1014  2019-01-30 08:01:25 
1224  246  216  70  1014  2019-01-30 09:01:23 
1225  254  256  65  1015  2019-01-30 10:01:24 
1226  262  278  70  1015  2019-01-30 11:01:25 
1227  266  281  70  1014  2019-01-30 12:01:23 
1228  270  276  67  1014  2019-01-30 13:01:24 
1229  274  281  65  1014  2019-01-30 14:01:26 
1230  281  269  63  1014  2019-01-30 15:01:23 
1231  281  266  62  1014  2019-01-30 16:01:25 
1232  281  253  63  1013  2019-01-30 17:01:22 
1233  264  226  65  1014  2019-01-30 19:01:26 
1234  260  219  70  1014  2019-01-30 20:01:23 
1235  264  211  70  1014  2019-01-30 21:01:25 
1236  259  211  67  1015  2019-01-30 22:01:22 
1237  261  204  67  1014  2019-01-30 23:01:24 
1238  256  201  66  1015  2019-01-31 00:01:26 
1239  256  199  66  1015  2019-01-31 01:01:23 
1240  251  196  66  1014  2019-01-31 02:01:25 
1241  251  192  66  1014  2019-01-31 03:01:26 
1242  247  191  66  1013  2019-01-31 04:01:23 
1243  246  189  67  1014  2019-01-31 05:01:24 
1244  246  187  67  1015  2019-01-31 06:01:26 
1245  246  191  67  1015  2019-01-31 07:01:23 
1246  246  206  71  1016  2019-01-31 08:01:25 
1247  241  216  71  1016  2019-01-31 09:01:22 
1248  246  241  70  1016  2019-01-31 10:01:24 
1249  256  256  67  1015  2019-01-31 11:01:26 
1250  251  252  65  1016  2019-01-31 12:01:23 
1251  253  248  64  1015  2019-01-31 13:01:24 
1252  252  256  64  1015  2019-01-31 14:01:26 
1253  255  250  63  1015  2019-01-31 15:01:23 
1254  255  241  61  1014  2019-01-31 16:01:25 
1255  256  240  62  1014  2019-01-31 17:01:27 
1256  261  231  62  1015  2019-01-31 18:01:24 
1257  260  216  62  1014  2019-01-31 19:01:26 
1258  259  209  64  1014  2019-01-31 20:01:23 
1259  252  206  64  1014  2019-01-31 21:01:25 
1260  255  203  64  1015  2019-01-31 22:01:26 
1261  251  206  64  1015  2019-01-31 23:01:24 
1262  250  216  63  1014  2019-02-01 00:01:25 
1263  249  210  63  1014  2019-02-01 01:01:26 
1264  247  212  62  1013  2019-02-01 02:01:23 
1265  247  208  62  1014  2019-02-01 03:01:25 
1266  246  201  63  1014  2019-02-01 04:01:23 
1267  244  201  64  1014  2019-02-01 05:01:24 
1268  241  196  64  1015  2019-02-01 06:01:25 
1269  246  206  64  1015  2019-02-01 07:01:23 
1270  246  216  65  1016  2019-02-01 08:01:24 
1271  246  256  63  1015  2019-02-01 10:01:23 
1272  246  271  63  1014  2019-02-01 11:01:24 
1273  250  286  62  1014  2019-02-01 12:01:26 
1274  251  295  62  1013  2019-02-01 13:01:23 
1275  253  291  61  1013  2019-02-01 14:01:25 
1276  257  266  60  1012  2019-02-01 15:01:26 
1277  258  266  57  1011  2019-02-01 16:01:24 
1278  261  267  56  1011  2019-02-01 17:01:25 
1279  261  251  55  1010  2019-02-01 18:01:23 
1280  261  236  56  1010  2019-02-01 19:01:24 
1281  261  231  57  1011  2019-02-01 20:01:26 
1282  263  222  57  1013  2019-02-01 21:01:23 
1283  264  219  60  1012  2019-02-01 22:01:24 
1284  261  221  60  1012  2019-02-01 23:01:26 
1285  261  213  61  1011  2019-02-02 00:01:24 
1286  260  212  62  1010  2019-02-02 02:01:26 
1287  256  211  63  1010  2019-02-02 03:01:23 
1288  256  211  63  1010  2019-02-02 04:01:25 
1289  256  207  63  1009  2019-02-02 05:01:26 
1290  256  206  64  1010  2019-02-02 06:01:23 
1291  256  204  64  1010  2019-02-02 07:01:24 
1292  255  206  65  1011  2019-02-02 08:01:26 
1293  253  222  65  1011  2019-02-02 09:01:23 
1294  251  241  66  1011  2019-02-02 10:01:24 
1295  256  276  65  1012  2019-02-02 11:01:26 
1296  262  266  63  1012  2019-02-02 13:01:25 
1297  259  242  62  1010  2019-02-02 14:01:23 
1298  258  242  62  1010  2019-02-02 15:01:26 
1299  261  248  62  1009  2019-02-02 16:01:25 
1300  261  218  63  1011  2019-02-02 17:01:23 
1301  261  223  64  1011  2019-02-02 18:01:26 
1302  261  221  64  1012  2019-02-02 18:11:55 
1303  261  213  65  1012  2019-02-02 19:01:23 
1304  261  201  65  1012  2019-02-02 20:01:25 
1305  257  201  65  1012  2019-02-02 21:01:27 
1306  256  203  65  1013  2019-02-02 22:01:24 
1307  254  206  65  1013  2019-02-02 23:01:26 
1308  256  201  65  1012  2019-02-03 00:01:23 
1309  253  206  65  1012  2019-02-03 01:01:24 
1310  251  198  66  1012  2019-02-03 02:01:26 
1311  251  191  66  1011  2019-02-03 03:01:23 
1312  251  196  66  1012  2019-02-03 04:01:25 
1313  249  197  67  1012  2019-02-03 05:01:27 
1314  246  196  67  1012  2019-02-03 06:01:24 
1315  248  201  70  1012  2019-02-03 07:01:26 
1316  248  211  70  1012  2019-02-03 08:01:23 
1317  246  211  72  1012  2019-02-03 09:01:25 
1318  246  208  72  1014  2019-02-03 10:01:26 
1319  246  226  71  1014  2019-02-03 11:01:24 
1320  246  216  71  1014  2019-02-03 12:01:26 
1321  246  217  70  1015  2019-02-03 13:01:23 
1322  246  241  67  1015  2019-02-03 14:01:25 
1323  246  260  66  1014  2019-02-03 15:01:26 
1324  247  246  65  1014  2019-02-03 16:01:24 
1325  246  247  64  1015  2019-02-03 17:01:25 
1326  249  231  64  1014  2019-02-03 18:01:23 
1327  253  221  64  1016  2019-02-03 19:01:24 
1328  255  216  64  1016  2019-02-03 20:01:26 
1329  251  201  64  1017  2019-02-03 21:01:23 
1330  251  201  64  1017  2019-02-03 22:01:25 
1331  248  196  64  1018  2019-02-03 23:01:27 
1332  246  191  64  1018  2019-02-04 00:01:25 
1333  246  186  65  1017  2019-02-04 01:01:26 
1334  244  176  65  1017  2019-02-04 02:01:24 
1335  241  171  65  1016  2019-02-04 03:01:25 
1336  238  166  65  1016  2019-02-04 04:01:27 
1337  236  171  66  1016  2019-02-04 05:01:24 
1338  236  176  66  1017  2019-02-04 06:01:26 
1339  236  177  67  1018  2019-02-04 07:01:23 
1340  236  196  71  1018  2019-02-04 08:01:24 
1341  236  219  71  1018  2019-02-04 09:01:26 
1342  239  231  67  1019  2019-02-04 10:01:25 
1343  236  249  67  1019  2019-02-04 11:01:23 
1344  238  258  66  1019  2019-02-04 12:01:25 
1345  238  260  65  1018  2019-02-04 13:01:23 
1346  241  260  63  1018  2019-02-04 14:01:25 
1347  246  256  62  1017  2019-02-04 15:01:24 
1348  246  251  61  1017  2019-02-04 16:01:26 
1349  249  237  61  1017  2019-02-04 17:01:24 
1350  251  228  60  1017  2019-02-04 18:01:26 
1351  251  216  60  1017  2019-02-04 19:01:25 
1352  252  206  61  1018  2019-02-04 20:01:23 
1353  251  201  62  1019  2019-02-04 21:01:26 
1354  252  196  62  1019  2019-02-04 22:01:24 
1355  248  195  62  1018  2019-02-04 23:01:26 
1356  248  191  63  1018  2019-02-05 00:01:24 
1357  246  197  63  1018  2019-02-05 01:01:26 
1358  245  196  64  1017  2019-02-05 02:01:23 
1359  241  191  64  1017  2019-02-05 03:01:25 
1360  241  190  64  1017  2019-02-05 04:01:26 
1361  242  189  64  1016  2019-02-05 05:01:24 
1362  241  186  65  1016  2019-02-05 06:01:25 
1363  239  191  65  1016  2019-02-05 07:01:27 
1364  240  201  66  1015  2019-02-05 08:01:24 
1365  240  211  70  1016  2019-02-05 09:01:26 
1366  239  226  67  1017  2019-02-05 10:01:24 
1367  241  242  65  1016  2019-02-05 11:01:25 
1368  241  250  64  1017  2019-02-05 12:01:23 
1369  241  251  64  1017  2019-02-05 13:01:24 
1370  243  256  64  1017  2019-02-05 14:01:26 
1371  246  257  63  1015  2019-02-05 15:01:23 
1372  247  255  63  1015  2019-02-05 16:01:25 
1373  251  236  63  1015  2019-02-05 17:01:27 
1374  251  230  63  1015  2019-02-05 18:01:24 
1375  251  216  64  1015  2019-02-05 19:01:26 
1376  258  211  65  1017  2019-02-05 20:01:23 
1377  256  204  66  1016  2019-02-05 21:01:25 
1378  260  197  67  1016  2019-02-05 22:01:27 
1379  253  196  66  1016  2019-02-05 23:01:24 
1380  250  196  66  1016  2019-02-06 00:01:25 
1381  246  195  66  1016  2019-02-06 01:01:27 
1382  246  196  66  1015  2019-02-06 02:01:24 
1383  246  191  66  1014  2019-02-06 03:01:26 
1384  241  193  65  1014  2019-02-06 04:01:24 
1385  240  186  65  1012  2019-02-06 05:01:25 
1386  237  186  66  1013  2019-02-06 06:01:27 
1387  236  191  66  1012  2019-02-06 07:01:24 
1388  237  196  67  1013  2019-02-06 08:01:25 
1389  239  216  70  1014  2019-02-06 09:01:23 
1390  240  226  67  1013  2019-02-06 10:01:25 
1391  240  239  65  1014  2019-02-06 11:01:26 
1392  241  252  66  1014  2019-02-06 12:01:24 
1393  241  241  66  1014  2019-02-06 13:01:25 
1394  244  245  65  1013  2019-02-06 14:01:27 
1395  246  240  64  1012  2019-02-06 16:01:26 
1396  249  227  63  1011  2019-02-06 17:01:23 
1397  251  220  63  1011  2019-02-06 18:01:25 
1398  251  206  63  1011  2019-02-06 19:01:26 
1399  250  196  65  1011  2019-02-06 20:01:24 
1400  247  196  63  1010  2019-02-06 21:01:25 
1401  246  201  63  1011  2019-02-06 22:01:27 
1402  246  191  64  1011  2019-02-06 23:01:24 
1403  246  206  64  1011  2019-02-07 00:01:26 
1404  246  215  65  1010  2019-02-07 01:01:23 
1405  245  208  65  1009  2019-02-07 02:01:25 
1406  241  213  65  1009  2019-02-07 03:01:26 
1407  241  208  65  1008  2019-02-07 04:01:24 
1408  241  196  65  1007  2019-02-07 05:01:25 
1409  241  181  65  1007  2019-02-07 06:01:26 
1410  241  186  67  1007  2019-02-07 07:01:24 
1411  241  211  67  1006  2019-02-07 08:01:25 
1412  241  241  67  1008  2019-02-07 09:01:27 
1413  241  267  66  1008  2019-02-07 10:01:24 
1414  241  281  65  1007  2019-02-07 11:01:27 
1415  245  289  64  1006  2019-02-07 12:01:24 
1416  246  303  63  1008  2019-02-07 13:01:25 
1417  251  312  62  1007  2019-02-07 14:01:27 
1418  253  313  56  1007  2019-02-07 15:01:24 
1419  257  317  55  1005  2019-02-07 16:01:26 
1420  261  313  54  1006  2019-02-07 17:01:24 
1421  263  312  54  1005  2019-02-07 18:01:26 
1422  266  276  53  1006  2019-02-07 19:01:23 
1423  271  247  54  1007  2019-02-07 20:01:25 
1424  268  236  55  1007  2019-02-07 21:01:27 
1425  266  207  60  1007  2019-02-07 22:01:24 
1426  264  201  60  1007  2019-02-07 23:01:26 
1427  264  196  60  1008  2019-02-08 00:01:24 
1428  263  186  60  1009  2019-02-08 01:01:26 
1429  261  182  61  1008  2019-02-08 02:01:23 
1430  261  186  61  1009  2019-02-08 03:01:25 
1431  259  176  61  1010  2019-02-08 04:01:27 
1432  256  187  62  1010  2019-02-08 05:01:24 
1433  256  191  62  1011  2019-02-08 06:01:25 
1434  256  194  63  1012  2019-02-08 07:01:27 
1435  254  205  64  1013  2019-02-08 08:01:24 
1436  251  216  65  1013  2019-02-08 09:01:26 
1437  248  227  64  1014  2019-02-08 10:01:27 
1438  251  246  63  1015  2019-02-08 11:01:24 
1439  251  266  62  1013  2019-02-08 12:01:26 
1440  251  284  61  1014  2019-02-08 13:01:27 
1441  256  281  61  1014  2019-02-08 14:01:25 
1442  268  267  60  1014  2019-02-08 15:01:26 
1443  266  271  57  1013  2019-02-08 16:01:24 
1444  264  251  56  1011  2019-02-08 17:01:25 
1445  261  237  56  1013  2019-02-08 18:01:27 
1446  266  220  57  1014  2019-02-08 19:01:25 
1447  261  211  57  1014  2019-02-08 20:01:26 
1448  256  206  60  1013  2019-02-08 21:01:27 
1449  256  201  62  1013  2019-02-08 22:01:25 
1450  260  200  62  1014  2019-02-08 23:01:26 
1451  256  192  62  1014  2019-02-09 00:01:24 
1452  255  191  62  1014  2019-02-09 01:01:25 
1453  251  187  62  1012  2019-02-09 02:01:26 
1454  251  190  62  1013  2019-02-09 03:01:24 
1455  246  187  63  1012  2019-02-09 04:01:25 
1456  246  186  63  1012  2019-02-09 05:01:27 
1457  246  184  64  1011  2019-02-09 06:01:24 
1458  245  186  65  1011  2019-02-09 07:01:26 
1459  244  200  66  1011  2019-02-09 08:01:23 
1460  242  211  70  1012  2019-02-09 09:01:25 
1461  241  221  70  1012  2019-02-09 10:01:27 
1462  243  237  67  1013  2019-02-09 11:01:24 
1463  246  242  67  1012  2019-02-09 12:01:26 
1464  246  250  66  1013  2019-02-09 13:01:27 
1465  246  252  65  1012  2019-02-09 14:01:25 
1466  251  241  65  1012  2019-02-09 15:01:26 
1467  247  240  63  1011  2019-02-09 16:01:24 
1468  251  238  64  1011  2019-02-09 17:01:25 
1469  251  216  64  1012  2019-02-09 18:01:27 
1470  253  203  63  1011  2019-02-09 19:01:24 
1471  256  201  64  1011  2019-02-09 20:01:26 
1472  251  201  64  1011  2019-02-09 21:01:27 
1473  251  196  65  1011  2019-02-09 22:01:25 
1474  251  196  65  1011  2019-02-09 23:01:26 
1475  249  196  64  1011  2019-02-10 00:01:23 
1476  247  201  65  1013  2019-02-10 01:01:25 
1477  246  204  65  1012  2019-02-10 02:01:27 
1478  248  202  65  1012  2019-02-10 03:01:24 
1479  246  196  66  1012  2019-02-10 04:01:26 
1480  241  191  67  1012  2019-02-10 05:01:27 
1481  242  186  67  1012  2019-02-10 06:01:25 
1482  242  196  70  1012  2019-02-10 07:01:26 
1483  241  194  71  1013  2019-02-10 08:01:24 
1484  240  196  72  1013  2019-02-10 09:01:25 
1485  241  207  72  1013  2019-02-10 10:01:27 
1486  241  221  67  1014  2019-02-10 11:01:24 
1487  241  230  65  1015  2019-02-10 12:01:26 
1488  251  218  65  1014  2019-02-10 13:01:27 
1489  249  226  64  1014  2019-02-10 14:01:25 
1490  246  217  64  1013  2019-02-10 15:01:26 
1491  243  211  63  1014  2019-02-10 16:01:27 
1492  241  201  63  1014  2019-02-10 17:01:25 
1493  241  194  63  1013  2019-02-10 18:01:26 
1494  241  188  64  1013  2019-02-10 19:01:24 
1495  241  186  64  1013  2019-02-10 20:01:25 
1496  240  176  64  1014  2019-02-10 21:01:27 
1497  240  180  64  1014  2019-02-10 22:01:25 
1498  236  176  64  1014  2019-02-10 23:01:25 
1499  236  176  64  1014  2019-02-11 00:01:27 
1500  233  176  65  1014  2019-02-11 01:01:24 
1501  231  179  65  1013  2019-02-11 02:01:26 
1502  230  176  65  1013  2019-02-11 03:01:23 
1503  230  176  66  1012  2019-02-11 04:01:25 
1504  226  176  67  1012  2019-02-11 05:01:26 
1505  228  171  70  1012  2019-02-11 06:01:24 
1506  226  176  71  1013  2019-02-11 07:01:25 
1507  222  189  73  1013  2019-02-11 08:01:27 
1508  226  206  73  1013  2019-02-11 09:01:24 
1509  226  225  71  1013  2019-02-11 10:01:26 
1510  226  236  71  1014  2019-02-11 11:01:27 
1511  229  246  70  1013  2019-02-11 12:01:25 
1512  231  247  67  1013  2019-02-11 13:01:26 
1513  231  245  65  1012  2019-02-11 14:01:24 
1514  235  241  65  1012  2019-02-11 15:01:25 
1515  238  231  64  1012  2019-02-11 16:01:27 
1516  241  200  64  1012  2019-02-11 19:01:26 
1517  241  191  65  1013  2019-02-11 20:01:27 
1518  241  189  67  1012  2019-02-11 21:01:25 
1519  240  186  67  1012  2019-02-11 22:01:26 
1520  236  184  67  1012  2019-02-11 23:01:24 
1521  236  181  67  1011  2019-02-12 00:01:25 
1522  236  181  70  1012  2019-02-12 01:01:27 
1523  236  176  70  1011  2019-02-12 02:01:24 
1524  234  176  71  1011  2019-02-12 03:01:26 
1525  231  176  71  1011  2019-02-12 04:01:27 
1526  231  176  71  1011  2019-02-12 05:01:25 
1527  230  179  72  1011  2019-02-12 06:01:26 
1528  228  179  72  1010  2019-02-12 07:01:25 
1529  226  186  72  1011  2019-02-12 08:01:26 
1530  227  236  72  1011  2019-02-12 11:01:27 
1531  231  242  72  1012  2019-02-12 12:01:24 
1532  231  247  70  1012  2019-02-12 13:01:26 
1533  232  246  66  1012  2019-02-12 14:01:24 
1534  236  241  65  1012  2019-02-12 15:01:25 
1535  236  241  63  1012  2019-02-12 16:01:27 
1536  241  201  63  1012  2019-02-12 19:01:26 
1537  241  189  64  1013  2019-02-12 20:01:27 
1538  238  193  64  1013  2019-02-12 21:01:25 
1539  236  188  64  1014  2019-02-12 22:01:26 
1540  236  186  65  1015  2019-02-12 23:01:24 
1541  236  186  65  1013  2019-02-13 00:01:25 
1542  231  186  66  1016  2019-02-13 01:01:27 
1543  231  184  67  1015  2019-02-13 02:01:24 
1544  231  176  67  1015  2019-02-13 03:01:26 
1545  230  176  70  1014  2019-02-13 04:01:28 
1546  229  176  70  1015  2019-02-13 05:01:25 
1547  226  176  70  1016  2019-02-13 06:01:26 
1548  225  181  70  1016  2019-02-13 07:01:24 
1549  226  189  70  1017  2019-02-13 08:01:25 
1550  226  219  70  1017  2019-02-13 10:01:25 
1551  227  234  67  1017  2019-02-13 11:01:27 
1552  231  241  65  1016  2019-02-13 12:01:24 
1553  231  241  65  1016  2019-02-13 13:01:26 
1554  241  241  66  1016  2019-02-13 14:01:27 
1555  245  216  67  1016  2019-02-13 18:01:27 
1556  246  199  67  1016  2019-02-13 19:01:25 
1557  251  191  67  1015  2019-02-13 20:01:26 
1558  244  186  67  1016  2019-02-13 21:01:24 
1559  245  186  66  1016  2019-02-13 22:01:25 
1560  239  181  67  1016  2019-02-13 23:01:28 
1561  236  181  67  1017  2019-02-14 00:01:25 
1562  236  181  67  1016  2019-02-14 01:01:26 
1563  232  181  67  1016  2019-02-14 02:01:24 
1564  231  176  67  1016  2019-02-14 03:01:25 
1565  227  173  67  1015  2019-02-14 04:01:27 
1566  227  180  66  1013  2019-02-14 05:01:24 
1567  226  186  66  1014  2019-02-14 06:01:25 
1568  226  191  66  1014  2019-02-14 07:01:27 
1569  226  202  64  1014  2019-02-14 08:01:24 
1570  226  237  63  1013  2019-02-14 09:01:26 
1571  228  256  60  1013  2019-02-14 10:01:27 
1572  230  276  56  1013  2019-02-14 11:01:24 
1573  235  301  56  1013  2019-02-14 12:01:26 
1574  239  317  54  1013  2019-02-14 13:01:25 
1575  241  309  56  1011  2019-02-14 14:01:27 
1576  241  295  53  1010  2019-02-14 15:01:25 
1577  247  297  54  1010  2019-02-14 16:01:24 
1578  250  281  52  1010  2019-02-14 17:01:26 
1579  251  275  53  1009  2019-02-14 18:01:24 
1580  254  256  54  1010  2019-02-14 19:01:27 
1581  261  241  55  1010  2019-02-14 20:01:25 
1582  261  227  55  1010  2019-02-14 21:01:27 
1583  258  221  56  1009  2019-02-14 22:01:26 
1584  253  211  57  1010  2019-02-14 23:01:28 
1585  253  201  57  1008  2019-02-15 00:01:26 
1586  251  196  57  1010  2019-02-15 01:01:27 
1587  251  191  60  1008  2019-02-15 02:01:25 
1588  248  182  60  1008  2019-02-15 03:01:26 
1589  246  180  60  1008  2019-02-15 04:01:27 
1590  243  173  60  1008  2019-02-15 05:01:25 
1591  241  171  61  1008  2019-02-15 06:01:26 
1592  241  178  62  1010  2019-02-15 07:01:27 
1593  241  196  62  1011  2019-02-15 08:01:25 
1594  241  222  64  1011  2019-02-15 09:01:26 
1595  241  242  62  1010  2019-02-15 10:01:24 
1596  246  271  61  1012  2019-02-15 11:01:25 
1597  246  280  60  1012  2019-02-15 12:01:27 
1598  250  289  60  1013  2019-02-15 13:01:24 
1599  254  306  57  1011  2019-02-15 14:01:26 
1600  256  286  55  1011  2019-02-15 15:01:28 
1601  259  277  54  1011  2019-02-15 16:01:26 
1602  257  253  56  1011  2019-02-15 17:01:28 
1603  259  246  57  1011  2019-02-15 18:01:25 
1604  259  231  62  1011  2019-02-15 19:01:27 
1605  260  221  62  1012  2019-02-15 20:01:26 
1606  260  218  62  1011  2019-02-15 21:01:27 
1607  260  211  63  1013  2019-02-15 22:01:25 
1608  257  204  64  1013  2019-02-15 23:01:27 
1609  258  199  63  1013  2019-02-16 00:01:25 
1610  256  193  63  1013  2019-02-16 01:01:26 
1611  252  191  63  1013  2019-02-16 02:01:28 
1612  251  184  62  1012  2019-02-16 03:01:25 
1613  251  183  63  1013  2019-02-16 04:01:27 
1614  251  187  63  1014  2019-02-16 05:01:24 
1615  248  186  63  1014  2019-02-16 06:01:26 
1616  246  189  64  1014  2019-02-16 07:01:27 
1617  246  196  65  1016  2019-02-16 08:01:24 
1618  246  206  66  1016  2019-02-16 09:01:27 
1619  246  241  66  1016  2019-02-16 10:01:24 
1620  247  249  65  1016  2019-02-16 12:01:27 
1621  247  259  65  1016  2019-02-16 13:01:25 
1622  249  251  64  1016  2019-02-16 14:01:26 
1623  252  260  62  1016  2019-02-16 16:01:25 
1624  255  241  63  1016  2019-02-16 17:01:28 
1625  252  231  61  1016  2019-02-16 18:01:25 
1626  254  213  61  1016  2019-02-16 19:01:26 
1627  251  201  62  1018  2019-02-16 20:01:28 
1628  250  201  62  1017  2019-02-16 21:01:25 
1629  251  196  63  1019  2019-02-16 22:01:27 
1630  251  196  62  1018  2019-02-16 23:01:24 
1631  246  195  62  1018  2019-02-17 00:01:26 
1632  246  191  63  1018  2019-02-17 01:01:27 
1633  244  191  63  1016  2019-02-17 02:01:24 
1634  241  187  63  1017  2019-02-17 03:01:25 
1635  241  186  64  1016  2019-02-17 04:01:27 
1636  236  183  64  1016  2019-02-17 05:01:24 
1637  236  181  64  1016  2019-02-17 06:01:26 
1638  236  181  65  1017  2019-02-17 07:01:27 
1639  236  193  65  1018  2019-02-17 08:01:25 
1640  236  211  65  1017  2019-02-17 09:01:26 
1641  236  231  65  1017  2019-02-17 10:01:28 
1642  239  241  64  1018  2019-02-17 11:01:25 
1643  239  252  64  1017  2019-02-17 12:01:27 
1644  241  259  62  1017  2019-02-17 13:01:28 
1645  244  250  63  1017  2019-02-17 14:01:25 
1646  243  254  64  1016  2019-02-17 15:01:27 
1647  248  249  64  1015  2019-02-17 16:01:25 
1648  246  241  63  1015  2019-02-17 17:01:26 
1649  247  227  63  1015  2019-02-17 18:01:28 
1650  246  212  65  1015  2019-02-17 19:01:26 
1651  246  213  64  1014  2019-02-17 20:01:28 
1652  246  212  64  1016  2019-02-17 21:01:25 
1653  246  211  64  1015  2019-02-17 22:01:27 
1654  246  197  64  1015  2019-02-17 23:01:28 
1655  246  199  64  1015  2019-02-18 00:01:25 
1656  246  192  64  1015  2019-02-18 01:01:27 
1657  241  191  64  1014  2019-02-18 02:01:28 
1658  241  193  64  1014  2019-02-18 03:01:25 
1659  241  181  64  1014  2019-02-18 04:01:27 
1660  238  170  64  1013  2019-02-18 05:01:24 
1661  236  166  64  1014  2019-02-18 06:01:26 
1662  234  171  65  1014  2019-02-18 07:01:27 
1663  233  195  65  1014  2019-02-18 08:01:25 
1664  236  231  65  1014  2019-02-18 09:01:26 
1665  236  241  64  1015  2019-02-18 10:01:29 
1666  236  260  64  1014  2019-02-18 11:01:26 
1667  241  265  63  1015  2019-02-18 12:01:27 
1668  241  266  63  1014  2019-02-18 13:01:26 
1669  245  251  63  1014  2019-02-18 14:01:28 
1670  246  261  62  1014  2019-02-18 15:01:25 
1671  246  246  62  1014  2019-02-18 16:01:27 
1672  250  231  63  1013  2019-02-18 17:01:25 
1673  246  221  63  1013  2019-02-18 18:01:26 
1674  249  200  63  1013  2019-02-18 19:01:28 
1675  250  194  63  1013  2019-02-18 20:01:25 
1676  246  191  63  1013  2019-02-18 21:01:27 
1677  244  190  63  1014  2019-02-18 22:01:28 
1678  244  186  63  1014  2019-02-18 23:01:26 
1679  241  186  63  1013  2019-02-19 00:01:27 
1680  241  181  64  1012  2019-02-19 01:01:28 
1681  239  181  64  1012  2019-02-19 02:01:26 
1682  237  173  64  1011  2019-02-19 03:01:27 
1683  236  185  65  1010  2019-02-19 04:01:25 
1684  235  186  65  1010  2019-02-19 05:01:26 
1685  233  181  65  1010  2019-02-19 06:01:28 
1686  234  187  66  1010  2019-02-19 07:01:25 
1687  233  196  67  1010  2019-02-19 08:01:26 
1688  235  231  67  1010  2019-02-19 09:01:28 
1689  236  256  66  1009  2019-02-19 10:01:26 
1690  236  276  65  1010  2019-02-19 11:01:27 
1691  239  273  65  1010  2019-02-19 12:01:24 
1692  241  293  64  1008  2019-02-19 13:01:26 
1693  242  295  64  1008  2019-02-19 14:01:28 
1694  246  286  63  1007  2019-02-19 15:01:25 
1695  247  271  61  1009  2019-02-19 16:01:27 
1696  251  256  62  1008  2019-02-19 17:01:28 
1697  253  239  62  1007  2019-02-19 18:01:26 
1698  251  211  65  1009  2019-02-19 19:01:27 
1699  249  212  67  1009  2019-02-19 20:01:25 
1700  251  211  67  1009  2019-02-19 21:01:26 
1701  253  211  67  1011  2019-02-19 22:01:28 
1702  256  211  67  1010  2019-02-19 23:01:25 
1703  254  211  70  1010  2019-02-20 00:01:27 
1704  253  211  70  1010  2019-02-20 01:01:24 
1705  251  207  71  1011  2019-02-20 02:01:26 
1706  249  207  71  1010  2019-02-20 03:01:27 
1707  250  213  72  1011  2019-02-20 04:01:25 
1708  249  211  72  1011  2019-02-20 05:01:26 
1709  248  207  73  1012  2019-02-20 06:01:28 
1710  246  206  74  1012  2019-02-20 07:01:25 
1711  245  226  74  1013  2019-02-20 08:01:27 
1712  244  235  75  1014  2019-02-20 09:01:25 
1713  246  246  73  1015  2019-02-20 10:01:26 
1714  246  261  72  1015  2019-02-20 11:01:28 
1715  249  270  67  1015  2019-02-20 12:01:25 
1716  251  272  65  1014  2019-02-20 13:01:27 
1717  251  276  65  1016  2019-02-20 14:01:28 
1718  271  281  63  1015  2019-02-20 15:01:26 
1719  268  262  64  1015  2019-02-20 16:01:27 
1720  262  246  66  1016  2019-02-20 17:01:25 
1721  259  236  71  1016  2019-02-20 18:01:27 
1722  256  221  72  1016  2019-02-20 19:01:28 
1723  246  210  72  1018  2019-02-20 20:01:25 
1724  238  201  67  1018  2019-02-20 21:01:27 
1725  246  205  65  1019  2019-02-20 22:01:28 
1726  247  203  65  1018  2019-02-20 23:01:25 
1727  247  201  65  1018  2019-02-21 00:01:27 
1728  246  200  66  1018  2019-02-21 01:01:28 
1729  246  191  66  1018  2019-02-21 02:01:26 
1730  246  190  66  1019  2019-02-21 03:01:27 
1731  242  186  66  1018  2019-02-21 04:01:29 
1732  241  183  65  1018  2019-02-21 05:01:26 
1733  241  177  66  1018  2019-02-21 06:01:28 
1734  236  176  66  1018  2019-02-21 07:01:25 
1735  239  186  66  1019  2019-02-21 08:01:27 
1736  240  200  66  1020  2019-02-21 09:01:28 
1737  241  211  65  1019  2019-02-21 10:01:26 
1738  240  218  64  1019  2019-02-21 11:01:27 
1739  241  231  64  1019  2019-02-21 12:01:25 
1740  241  229  63  1019  2019-02-21 13:01:26 
1741  241  232  62  1018  2019-02-21 14:01:28 
1742  243  232  62  1018  2019-02-21 15:01:25 
1743  246  233  62  1016  2019-02-21 16:01:27 
1744  246  221  62  1016  2019-02-21 17:01:28 
1745  246  215  62  1016  2019-02-21 18:01:26 
1746  246  199  63  1016  2019-02-21 19:01:27 
1747  246  193  63  1016  2019-02-21 20:01:24 
1748  248  188  64  1015  2019-02-21 21:01:26 
1749  246  191  64  1015  2019-02-21 22:01:27 
1750  246  187  64  1015  2019-02-21 23:01:25 
1751  243  192  64  1015  2019-02-22 00:01:27 
1752  242  208  64  1014  2019-02-22 01:01:28 
1753  241  196  65  1014  2019-02-22 02:01:26 
1754  240  186  65  1013  2019-02-22 03:01:27 
1755  236  181  65  1013  2019-02-22 04:01:26 
1756  236  176  65  1012  2019-02-22 05:01:27 
1757  232  176  65  1012  2019-02-22 06:01:29 
1758  232  171  67  1012  2019-02-22 07:01:26 
1759  231  193  70  1011  2019-02-22 08:01:27 
1760  233  230  70  1013  2019-02-22 09:01:25 
1761  236  251  67  1012  2019-02-22 10:01:27 
1762  236  276  67  1011  2019-02-22 11:01:28 
1763  241  277  66  1012  2019-02-22 12:01:26 
1764  241  262  65  1013  2019-02-22 13:01:27 
1765  259  277  63  1011  2019-02-22 14:01:25 
1766  261  268  62  1011  2019-02-22 15:01:26 
1767  257  278  62  1010  2019-02-22 16:01:28 
1768  262  266  62  1011  2019-02-22 17:01:25 
1769  262  246  63  1010  2019-02-22 18:01:27 
1770  256  231  64  1011  2019-02-22 19:01:28 
1771  246  211  66  1011  2019-02-22 20:01:26 
1772  240  206  73  1012  2019-02-22 21:01:27 
1773  237  201  76  1012  2019-02-22 22:01:25 
1774  236  201  100  1013  2019-02-22 23:01:26 
1775  236  202  101  1013  2019-02-23 00:01:28 
1776  235  196  101  1014  2019-02-23 01:01:25 
1777  226  191  101  1013  2019-02-23 02:01:27 
1778  229  194  102  1012  2019-02-23 03:01:25 
1779  231  193  100  1012  2019-02-23 04:01:26 
1780  221  175  75  1011  2019-02-23 05:01:28 
1781  221  172  74  1012  2019-02-23 06:01:25 
1782  218  177  75  1012  2019-02-23 07:01:26 
1783  221  187  76  1014  2019-02-23 08:01:28 
1784  224  196  100  1015  2019-02-23 09:01:25 
1785  241  258  76  1014  2019-02-23 11:01:28 
1786  251  271  72  1014  2019-02-23 12:01:25 
1787  261  271  70  1014  2019-02-23 13:01:27 
1788  265  283  70  1013  2019-02-23 14:01:28 
1789  261  266  70  1013  2019-02-23 15:01:26 
1790  261  268  72  1013  2019-02-23 16:01:27 
1791  261  262  74  1013  2019-02-23 17:01:28 
1792  256  246  75  1013  2019-02-23 18:01:25 
1793  248  231  100  1012  2019-02-23 19:01:27 
1794  248  230  77  1014  2019-02-23 20:01:28 
1795  250  226  76  1014  2019-02-23 21:01:26 
1796  249  216  75  1015  2019-02-23 22:01:27 
1797  247  215  74  1014  2019-02-23 23:01:25 
1798  249  211  73  1014  2019-02-24 00:01:26 
1799  246  211  73  1014  2019-02-24 01:01:28 
1800  245  208  72  1014  2019-02-24 02:01:25 
1801  243  206  72  1013  2019-02-24 03:01:26 
1802  241  201  72  1014  2019-02-24 04:01:28 
1803  241  199  72  1014  2019-02-24 05:01:25 
1804  241  199  72  1014  2019-02-24 06:01:27 
1805  241  201  72  1014  2019-02-24 07:01:28 
1806  241  206  73  1014  2019-02-24 08:01:25 
1807  241  212  73  1014  2019-02-24 09:01:27 
1808  242  236  72  1015  2019-02-24 10:01:28 
1809  241  251  71  1016  2019-02-24 11:01:26 
1810  246  265  70  1015  2019-02-24 12:01:27 
1811  246  261  66  1014  2019-02-24 13:01:29 
1812  247  266  65  1014  2019-02-24 14:01:26 
1813  256  270  55  1014  2019-02-24 15:01:28 
1814  252  276  55  1012  2019-02-24 16:01:25 
1815  255  266  60  1013  2019-02-24 17:01:26 
1816  253  251  62  1013  2019-02-24 18:01:28 
1817  251  236  64  1013  2019-02-24 19:01:25 
1818  246  217  66  1014  2019-02-24 20:01:27 
1819  246  216  67  1014  2019-02-24 21:01:28 
1820  246  211  70  1015  2019-02-24 22:01:26 
1821  246  211  67  1015  2019-02-24 23:01:27 
1822  241  201  70  1014  2019-02-25 00:01:28 
1823  241  201  70  1014  2019-02-25 01:01:26 
1824  236  196  67  1013  2019-02-25 02:01:27 
1825  231  189  66  1013  2019-02-25 03:01:29 
1826  231  193  66  1012  2019-02-25 04:01:26 
1827  231  195  70  1012  2019-02-25 05:01:28 
1828  228  191  72  1012  2019-02-25 06:01:25 
1829  228  191  72  1012  2019-02-25 07:01:27 
1830  231  201  73  1012  2019-02-25 08:01:28 
1831  233  211  74  1012  2019-02-25 09:01:25 
1832  236  236  73  1011  2019-02-25 10:01:28 
1833  238  256  71  1011  2019-02-25 11:01:25 
1834  241  275  67  1011  2019-02-25 12:01:27 
1835  246  285  65  1009  2019-02-25 13:01:28 
1836  257  295  62  1009  2019-02-25 14:01:26 
1837  259  289  61  1010  2019-02-25 14:28:46 
1838  263  303  53  1010  2019-02-25 15:01:28 
1839  261  299  56  1009  2019-02-25 16:01:26 
1840  268  294  52  1009  2019-02-25 17:01:29 
1841  261  267  56  1009  2019-02-25 18:01:27 
1842  257  253  57  1009  2019-02-25 19:01:29 
1843  256  241  63  1011  2019-02-25 20:01:27 
1844  256  234  63  1010  2019-02-25 21:01:25 
1845  256  231  64  1010  2019-02-25 22:01:28 
1846  256  227  64  1010  2019-02-25 23:01:26 
1847  252  226  64  1010  2019-02-26 00:01:28 
1848  251  221  66  1011  2019-02-26 01:01:25 
1849  251  216  67  1011  2019-02-26 02:01:27 
1850  251  215  70  1011  2019-02-26 03:01:29 
1851  251  215  70  1010  2019-02-26 04:01:27 
1852  251  213  70  1010  2019-02-26 05:01:25 
1853  247  210  71  1011  2019-02-26 06:01:28 
1854  247  211  72  1011  2019-02-26 07:01:26 
1855  243  209  72  1012  2019-02-26 08:29:09 
1856  245  211  72  1012  2019-02-26 08:32:40 
1857  246  224  70  1012  2019-02-26 09:01:26 
1858  241  206  67  1014  2019-02-26 10:01:29 
1859  234  201  66  1014  2019-02-26 11:01:27 
1860  234  206  62  1014  2019-02-26 12:01:29 
1861  233  209  60  1014  2019-02-26 13:01:27 
1862  236  221  57  1014  2019-02-26 14:01:29 
1863  241  236  52  1014  2019-02-26 16:01:26 
1864  240  227  53  1014  2019-02-26 17:01:29 
1865  231  196  55  1015  2019-02-26 19:01:30 
1866  233  191  56  1015  2019-02-26 20:01:28 
1867  239  186  57  1015  2019-02-26 21:01:26 
1868  238  179  60  1016  2019-02-26 22:01:27 
1869  236  172  60  1017  2019-02-26 23:01:26 
1870  235  166  60  1016  2019-02-27 00:01:28 
1871  231  156  60  1016  2019-02-27 01:01:29 
1872  227  151  61  1015  2019-02-27 02:01:26 
1873  225  151  61  1016  2019-02-27 03:01:28 
1874  221  142  61  1015  2019-02-27 04:01:29 
1875  221  145  62  1016  2019-02-27 05:01:26 
1876  216  145  62  1016  2019-02-27 06:01:28 
1877  216  140  63  1017  2019-02-27 07:01:29 
1878  216  156  64  1017  2019-02-27 08:01:26 
1879  221  211  60  1018  2019-02-27 12:01:29 
1880  221  226  57  1017  2019-02-27 13:01:26 
1881  226  241  52  1016  2019-02-27 14:01:28 
1882  226  246  51  1016  2019-02-27 15:01:29 
1883  230  251  52  1016  2019-02-27 16:01:27 
1884  231  242  53  1016  2019-02-27 17:01:30 
1885  231  226  53  1016  2019-02-27 18:01:27 
1886  231  211  54  1016  2019-02-27 19:01:29 
1887  233  206  56  1016  2019-02-27 20:01:27 
1888  235  201  57  1017  2019-02-27 21:01:28 
1889  233  201  57  1018  2019-02-27 22:01:25 
1890  232  196  60  1018  2019-02-27 23:01:27 
1891  233  196  60  1017  2019-02-28 00:01:28 
1892  231  194  61  1018  2019-02-28 01:01:26 
1893  231  191  61  1017  2019-02-28 02:01:27 
1894  231  193  62  1017  2019-02-28 03:01:29 
1895  230  191  63  1016  2019-02-28 04:01:26 
1896  226  187  63  1016  2019-02-28 05:01:27 
1897  226  186  63  1016  2019-02-28 06:01:29 
1898  226  186  64  1015  2019-02-28 07:01:26 
1899  226  192  64  1016  2019-02-28 08:01:28 
1900  226  211  65  1016  2019-02-28 09:01:29 
1901  226  216  65  1017  2019-02-28 10:01:27 
1902  231  230  65  1017  2019-02-28 11:01:28 
1903  231  238  64  1016  2019-02-28 12:01:25 
1904  234  240  64  1016  2019-02-28 13:01:28 
1905  234  254  64  1017  2019-02-28 14:01:29 
1906  238  252  63  1016  2019-02-28 15:01:26 
1907  240  244  63  1016  2019-02-28 16:01:28 
1908  241  242  65  1016  2019-02-28 17:01:29 
1909  241  236  66  1017  2019-02-28 18:01:27 
1910  241  231  66  1016  2019-02-28 19:01:28 
1911  241  224  67  1017  2019-02-28 20:01:25 
1912  242  218  70  1018  2019-02-28 21:01:27 
1913  241  216  70  1018  2019-02-28 22:01:28 
1914  241  211  70  1018  2019-02-28 23:01:26 
1915  241  212  71  1018  2019-03-01 00:01:28 
1916  239  209  72  1016  2019-03-01 01:01:25 
1917  241  204  72  1016  2019-03-01 02:01:27 
1918  241  203  72  1016  2019-03-01 03:01:29 
1919  239  196  73  1017  2019-03-01 04:01:26 
1920  236  193  72  1016  2019-03-01 05:01:28 
1921  236  188  72  1015  2019-03-01 06:01:26 
1922  236  190  73  1017  2019-03-01 07:01:28 
1923  234  196  73  1018  2019-03-01 08:01:26 
1924  236  205  74  1017  2019-03-01 09:01:28 
1925  236  224  72  1017  2019-03-01 10:01:25 
1926  236  241  70  1017  2019-03-01 11:01:27 
1927  238  256  65  1018  2019-03-01 12:01:29 
1928  240  258  64  1017  2019-03-01 13:01:27 
1929  241  266  62  1016  2019-03-01 14:01:29 
1930  243  272  57  1016  2019-03-01 15:01:27 
1931  246  266  56  1016  2019-03-01 16:01:29 
1932  246  260  56  1016  2019-03-01 17:01:27 
1933  246  241  56  1016  2019-03-01 18:01:29 
1934  246  226  61  1015  2019-03-01 19:01:28 
1935  246  215  62  1016  2019-03-01 20:01:25 
1936  246  211  63  1017  2019-03-01 21:01:28 
1937  246  206  63  1017  2019-03-01 22:01:26 
1938  246  201  63  1016  2019-03-01 23:01:28 
1939  244  201  64  1017  2019-03-02 00:01:26 
1940  241  201  64  1016  2019-03-02 01:01:27 
1941  243  196  65  1015  2019-03-02 02:01:29 
1942  241  196  65  1015  2019-03-02 03:01:26 
1943  241  196  66  1014  2019-03-02 04:01:28 
1944  238  196  66  1014  2019-03-02 05:01:25 
1945  238  196  66  1015  2019-03-02 06:01:27 
1946  236  196  67  1016  2019-03-02 07:01:29 
1947  236  204  70  1015  2019-03-02 08:01:26 
1948  241  219  73  1015  2019-03-02 09:01:27 
1949  241  231  74  1016  2019-03-02 10:01:29 
1950  241  234  74  1016  2019-03-02 11:01:27 
1951  246  261  72  1015  2019-03-02 12:01:28 
1952  248  270  70  1015  2019-03-02 13:01:26 
1953  250  275  67  1015  2019-03-02 14:01:27 
1954  251  286  67  1016  2019-03-02 15:01:29 
1955  251  258  65  1016  2019-03-02 16:01:27 
1956  255  261  64  1015  2019-03-02 17:01:28 
1957  256  251  64  1016  2019-03-02 18:01:26 
1958  251  231  65  1016  2019-03-02 19:01:27 
1959  247  216  67  1016  2019-03-02 20:01:29 
1960  251  215  67  1015  2019-03-02 21:01:27 
1961  251  211  66  1017  2019-03-02 22:01:28 
1962  251  206  67  1017  2019-03-02 23:01:26 
1963  250  201  70  1017  2019-03-03 00:01:27 
1964  247  198  70  1016  2019-03-03 01:01:29 
1965  246  196  70  1016  2019-03-03 02:01:26 
1966  244  196  70  1015  2019-03-03 03:01:28 
1967  243  192  70  1016  2019-03-03 04:01:26 
1968  241  191  71  1014  2019-03-03 05:01:27 
1969  241  189  71  1014  2019-03-03 06:01:29 
1970  238  178  71  1014  2019-03-03 07:01:27 
1971  237  196  71  1015  2019-03-03 08:01:28 
1972  239  211  72  1015  2019-03-03 09:01:26 
1973  241  236  72  1015  2019-03-03 10:01:27 
1974  241  256  71  1016  2019-03-03 11:01:29 
1975  241  262  70  1015  2019-03-03 12:01:26 
1976  244  266  67  1014  2019-03-03 13:01:28 
1977  252  271  64  1013  2019-03-03 14:01:29 
1978  266  271  60  1013  2019-03-03 15:01:27 
1979  271  282  61  1013  2019-03-03 16:01:28 
1980  266  271  57  1013  2019-03-03 17:01:26 
1981  264  256  60  1013  2019-03-03 18:01:27 
1982  254  247  56  1015  2019-03-03 19:01:29 
1983  250  237  64  1015  2019-03-03 20:01:26 
1984  248  231  66  1016  2019-03-03 21:01:27 
1985  245  214  66  1016  2019-03-03 22:01:29 
1986  241  213  65  1015  2019-03-03 23:01:26 
1987  236  201  65  1015  2019-03-04 00:01:28 
1988  236  196  65  1016  2019-03-04 01:01:30 
1989  236  196  66  1014  2019-03-04 02:01:27 
1990  235  196  67  1014  2019-03-04 03:01:29 
1991  235  196  70  1014  2019-03-04 04:01:26 
1992  235  196  70  1014  2019-03-04 05:01:28 
1993  231  201  71  1014  2019-03-04 06:01:29 
1994  236  201  72  1013  2019-03-04 07:01:27 
1995  236  204  73  1014  2019-03-04 08:01:28 
1996  232  211  76  1015  2019-03-04 09:01:26 
1997  237  206  75  1015  2019-03-04 10:01:28 
1998  240  201  76  1017  2019-03-04 11:01:26 
1999  239  221  74  1016  2019-03-04 12:01:29 
2000  241  231  72  1016  2019-03-04 13:01:27 
2001  240  228  71  1016  2019-03-04 14:01:26 
2002  238  221  70  1016  2019-03-04 15:01:29 
2003  238  221  71  1016  2019-03-04 16:01:27 
2004  241  216  67  1016  2019-03-04 17:01:26 
2005  244  210  67  1017  2019-03-04 18:01:28 
2006  239  199  70  1017  2019-03-04 19:01:27 
2007  241  196  70  1017  2019-03-04 20:01:26 
2008  241  188  67  1017  2019-03-04 21:01:28 
2009  236  181  67  1019  2019-03-04 22:01:27 
2010  236  179  67  1018  2019-03-04 23:01:30 
2011  231  176  67  1018  2019-03-05 00:01:29 
2012  231  171  67  1018  2019-03-05 01:01:27 
2013  228  171  67  1017  2019-03-05 02:01:28 
2014  224  167  67  1016  2019-03-05 03:01:30 
2015  222  166  70  1015  2019-03-05 04:01:27 
2016  221  166  70  1015  2019-03-05 05:01:29 
2017  221  166  70  1015  2019-03-05 06:01:26 
2018  219  165  71  1015  2019-03-05 07:01:27 
2019  221  173  71  1016  2019-03-05 08:01:29 
2020  221  188  71  1015  2019-03-05 09:01:26 
2021  223  201  71  1016  2019-03-05 10:01:28 
2022  225  221  70  1016  2019-03-05 11:01:29 
2023  223  236  70  1014  2019-03-05 12:01:27 
2024  226  246  70  1014  2019-03-05 13:01:28 
2025  228  236  70  1014  2019-03-05 14:01:26 
2026  231  236  66  1013  2019-03-05 15:01:27 
2027  230  241  65  1013  2019-03-05 16:01:29 
2028  232  236  65  1012  2019-03-05 17:01:27 
2029  236  217  65  1013  2019-03-05 18:01:28 
2030  236  208  66  1012  2019-03-05 19:01:30 
2031  236  207  67  1012  2019-03-05 20:01:27 
2032  236  201  67  1012  2019-03-05 21:01:29 
2033  235  202  67  1011  2019-03-05 22:01:26 
2034  236  190  67  1012  2019-03-05 23:01:28 
2035  233  191  70  1011  2019-03-06 00:01:29 
2036  231  196  70  1012  2019-03-06 01:01:27 
2037  231  181  70  1011  2019-03-06 02:01:29 
2038  226  176  70  1011  2019-03-06 03:01:26 
2039  226  173  71  1010  2019-03-06 04:01:28 
2040  224  171  71  1010  2019-03-06 05:01:29 
2041  223  176  71  1011  2019-03-06 06:01:27 
2042  221  166  72  1011  2019-03-06 07:01:28 
2043  221  179  73  1012  2019-03-06 08:01:30 
2044  227  197  74  1012  2019-03-06 09:01:27 
2045  226  226  74  1012  2019-03-06 10:01:29 
2046  226  241  73  1013  2019-03-06 11:01:26 
2047  231  271  73  1012  2019-03-06 12:01:28 
2048  236  288  70  1012  2019-03-06 13:01:29 
2049  261  291  70  1013  2019-03-06 14:01:27 
2050  262  291  67  1013  2019-03-06 15:01:29 
2051  254  299  65  1013  2019-03-06 16:01:26 
2052  251  302  65  1013  2019-03-06 17:01:28 
2053  252  266  62  1015  2019-03-06 18:01:29 
2054  247  231  62  1015  2019-03-06 19:01:27 
2055  243  212  61  1015  2019-03-06 20:01:28 
2056  236  201  62  1017  2019-03-06 21:01:30 
2057  231  191  62  1017  2019-03-06 22:01:27 
2058  226  181  63  1016  2019-03-06 23:01:29 
2059  226  184  64  1016  2019-03-07 00:01:26 
2060  223  180  64  1017  2019-03-07 01:01:27 
2061  219  181  65  1016  2019-03-07 02:01:29 
2062  219  181  66  1016  2019-03-07 03:01:26 
2063  224  186  67  1017  2019-03-07 04:01:28 
2064  226  191  70  1017  2019-03-07 05:01:29 
2065  221  187  71  1016  2019-03-07 06:01:27 
2066  221  190  73  1017  2019-03-07 07:01:28 
2067  226  196  73  1016  2019-03-07 08:01:30 
2068  227  204  75  1017  2019-03-07 09:01:27 
2069  225  181  101  1020  2019-03-07 10:01:29 
2070  226  176  100  1020  2019-03-07 11:01:28 
2071  227  171  75  1020  2019-03-07 12:01:26 
2072  227  171  74  1020  2019-03-07 13:01:29 
2073  228  177  72  1021  2019-03-07 14:01:27 
2074  226  176  70  1021  2019-03-07 15:01:30 
2075  224  176  67  1020  2019-03-07 16:01:28 
2076  221  172  67  1021  2019-03-07 17:01:26 
2077  221  171  67  1022  2019-03-07 18:01:29 
2078  221  171  65  1022  2019-03-07 19:01:27 
2079  217  171  64  1021  2019-03-07 20:01:29 
2080  216  166  63  1022  2019-03-07 21:01:27 
2081  212  164  62  1023  2019-03-07 22:01:30 
2082  211  161  61  1022  2019-03-07 23:01:28 
2083  207  157  62  1022  2019-03-08 00:01:26 
2084  207  161  62  1021  2019-03-08 01:01:27 
2085  203  161  63  1021  2019-03-08 02:01:29 
2086  204  158  63  1020  2019-03-08 03:01:30 
2087  205  156  64  1020  2019-03-08 04:01:27 
2088  201  161  64  1020  2019-03-08 05:01:28 
2089  201  161  66  1019  2019-03-08 06:01:29 
2090  201  161  66  1020  2019-03-08 07:01:27 
2091  201  166  66  1020  2019-03-08 08:01:28 
2092  205  182  67  1019  2019-03-08 09:01:30 
2093  206  192  70  1020  2019-03-08 10:01:27 
2094  206  206  67  1019  2019-03-08 11:00:54 
2095  207  207  67  1019  2019-03-08 11:01:30 
2096  208  196  66  1019  2019-03-08 12:01:28 
2097  209  215  65  1018  2019-03-08 13:01:30 
2098  212  215  66  1017  2019-03-08 14:01:28 
2099  215  215  65  1017  2019-03-08 15:01:30 
2100  211  211  66  1016  2019-03-08 16:01:28 
2101  214  206  66  1016  2019-03-08 17:01:30 
2102  213  196  71  1015  2019-03-08 18:01:28 
2103  213  186  73  1015  2019-03-08 19:01:30 
2104  216  181  73  1015  2019-03-08 20:01:28 
2105  216  176  72  1015  2019-03-08 21:01:30 
2106  215  171  72  1016  2019-03-08 22:01:28 
2107  213  171  72  1015  2019-03-08 23:01:30 
2108  212  166  73  1015  2019-03-09 00:01:28 
2109  211  168  73  1015  2019-03-09 01:01:30 
2110  210  169  73  1014  2019-03-09 02:01:28 
2111  206  166  73  1014  2019-03-09 03:01:30 
2112  206  166  73  1014  2019-03-09 04:01:28 
2113  205  166  74  1014  2019-03-09 05:01:30 
2114  205  166  74  1015  2019-03-09 06:01:28 
2115  206  171  74  1016  2019-03-09 07:01:30 
2116  206  186  77  1016  2019-03-09 08:01:28 
2117  208  201  77  1016  2019-03-09 09:01:30 
2118  209  206  77  1017  2019-03-09 10:01:28 
2119  209  206  76  1017  2019-03-09 11:01:30 
2120  211  204  76  1017  2019-03-09 12:01:28 
2121  211  213  75  1017  2019-03-09 13:01:30 
2122  211  217  75  1016  2019-03-09 14:01:28 
2123  211  216  74  1017  2019-03-09 15:01:30 
2124  211  212  75  1016  2019-03-09 16:01:27 
2125  213  209  75  1016  2019-03-09 17:01:29 
2126  212  197  75  1016  2019-03-09 18:01:27 
2127  215  191  76  1017  2019-03-09 19:01:29 
2128  216  186  76  1016  2019-03-09 20:01:27 
2129  217  186  76  1017  2019-03-09 21:01:29 
2130  216  186  75  1018  2019-03-09 22:01:27 
2131  214  176  75  1018  2019-03-09 23:01:29 
2132  211  176  75  1017  2019-03-10 00:01:27 
2133  211  175  75  1017  2019-03-10 01:01:29 
2134  211  176  75  1017  2019-03-10 02:01:27 
2135  210  171  75  1017  2019-03-10 03:01:29 
2136  206  171  75  1017  2019-03-10 04:01:27 
2137  206  166  75  1018  2019-03-10 05:01:28 
2138  205  168  76  1017  2019-03-10 06:01:26 
2139  204  167  76  1018  2019-03-10 07:01:28 
2140  206  175  77  1018  2019-03-10 08:01:30 
2141  206  183  100  1018  2019-03-10 09:01:28 
2142  206  201  100  1019  2019-03-10 10:01:30 
2143  208  221  100  1019  2019-03-10 11:01:28 
2144  210  231  77  1017  2019-03-10 12:01:30 
2145  211  240  77  1018  2019-03-10 13:01:27 
2146  215  246  76  1016  2019-03-10 14:01:29 
2147  216  233  75  1017  2019-03-10 15:01:27 
2148  216  226  73  1017  2019-03-10 16:01:29 
2149  216  201  75  1017  2019-03-10 17:01:27 
2150  221  186  74  1017  2019-03-10 18:01:29 
2151  217  178  74  1017  2019-03-10 19:01:27 
2152  219  171  75  1018  2019-03-10 20:01:29 
2153  219  170  74  1019  2019-03-10 21:01:27 
2154  216  166  73  1019  2019-03-10 22:01:30 
2155  212  166  73  1019  2019-03-10 23:01:27 
2156  211  161  73  1020  2019-03-11 00:01:29 
2157  210  161  73  1019  2019-03-11 01:01:27 
2158  209  161  73  1019  2019-03-11 02:01:29 
2159  204  158  73  1018  2019-03-11 03:01:27 
2160  204  156  74  1018  2019-03-11 04:01:29 
2161  206  161  75  1018  2019-03-11 05:01:27 
2162  203  161  77  1017  2019-03-11 06:02:19 
2163  203  161  77  1017  2019-03-11 06:02:30 
2164  203  161  77  1017  14  2019-03-11 07:01:26 
2165  202  161  101  1018  11  2019-03-11 08:01:29 
2166  204  161  102  1018  2019-03-11 09:01:27 
2167  206  161  101  1018  2019-03-11 09:16:32 
2168  202  166  101  1018  2019-03-11 10:01:29 
2169  204  169  101  1018  2019-03-11 11:01:28 
2170  206  171  101  1018  2019-03-11 12:01:26 
2171  202  171  101  1018  2019-03-11 13:01:29 
2172  206  181  101  1017  2019-03-11 14:01:27 
2173  206  186  103  1016  2019-03-11 15:01:30 
2174  206  194  102  1016  2019-03-11 16:01:29 
2175  205  186  101  1015  2019-03-11 17:01:27 
2176  206  182  101  1015  2019-03-11 18:01:30 
2177  208  180  103  1014  2019-03-11 19:01:29 
2178  206  171  102  1014  2019-03-11 20:01:28 
2179  206  176  102  1016  2019-03-11 21:01:26 
2180  206  170  102  1016  2019-03-11 22:01:29 
2181  204  166  101  1015  2019-03-11 23:01:28 
2182  202  161  101  1014  2019-03-12 00:01:26 
2183  202  161  101  1014  2019-03-12 01:01:29 
2184  203  157  101  1014  2019-03-12 02:01:27 
2185  200  158  101  1013  2019-03-12 03:01:29 
2186  197  156  101  1012  2019-03-12 04:01:28 
2187  198  161  101  1013  2019-03-12 05:01:30 
2188  197  161  101  1012  2019-03-12 06:01:28 
2189  196  161  101  1014  2019-03-12 07:01:26 
2190  196  166  102  1014  2019-03-12 08:01:29 
2191  196  171  102  1014  2019-03-12 09:01:27 
2192  196  186  103  1015  2019-03-12 10:01:29 
2193  199  201  103  1014  2019-03-12 11:01:27 
2194  201  192  103  1014  2019-03-12 12:01:31 
2195  201  211  103  1013  2019-03-12 13:01:29 
2196  204  236  100  1012  2019-03-12 14:01:27 
2197  204  206  77  1012  2019-03-12 15:01:29 
2198  206  216  76  1012  2019-03-12 16:01:28 
2199  206  201  75  1013  2019-03-12 17:01:30 
2200  207  201  75  1013  2019-03-12 18:01:28 
2201  210  191  75  1013  2019-03-12 19:01:27 
2202  208  183  75  1014  2019-03-12 20:01:29 
2203  206  176  76  1013  2019-03-12 21:01:27 
2204  206  171  76  1015  2019-03-12 22:01:30 
2205  207  171  76  1014  2019-03-12 23:01:28 
2206  206  171  76  1014  2019-03-13 00:01:30 
2207  206  169  77  1014  2019-03-13 01:01:28 
2208  206  163  77  1013  2019-03-13 02:01:27 
2209  201  160  77  1014  2019-03-13 03:01:29 
2210  200  156  77  1013  2019-03-13 04:01:27 
2211  199  152  77  1014  2019-03-13 05:01:29 
2212  196  151  77  1015  2019-03-13 06:01:28 
2213  194  151  77  1015  2019-03-13 07:01:30 
2214  196  157  100  1015  2019-03-13 08:01:28 
2215  197  171  101  1016  2019-03-13 09:01:26 
2216  199  186  101  1017  2019-03-13 10:01:29 
2217  201  201  101  1017  2019-03-13 11:01:27 
2218  206  216  102  1016  2019-03-13 12:01:29 
2219  206  233  100  1016  2019-03-13 13:01:28 
2220  211  241  76  1015  2019-03-13 14:01:30 
2221  211  241  75  1015  2019-03-13 15:01:28 
2222  216  241  74  1015  2019-03-13 16:01:27 
2223  218  236  73  1016  2019-03-13 17:01:30 
2224  221  221  73  1016  2019-03-13 18:01:28 
2225  221  214  75  1016  2019-03-13 19:01:26 
2226  221  202  76  1017  2019-03-13 20:01:29 
2227  221  200  76  1017  2019-03-13 21:01:27 
2228  223  201  100  1018  2019-03-13 22:01:30 
2229  221  196  77  1018  2019-03-13 23:01:28 
2230  221  196  100  1017  2019-03-14 00:01:26 
2231  221  196  100  1017  2019-03-14 01:01:29 
2232  221  196  100  1016  2019-03-14 02:01:27 
2233  221  191  100  1016  2019-03-14 03:01:30 
2234  216  187  100  1016  2019-03-14 04:01:28 
2235  221  186  101  1016  2019-03-14 05:01:26 
2236  217  181  101  1017  2019-03-14 06:01:29 
2237  217  181  101  1017  2019-03-14 07:01:27 
2238  219  187  102  1017  2019-03-14 08:01:30 
2239  225  191  104  1017  2019-03-14 08:31:47 
2240  221  196  100  1017  2019-03-14 09:00:39 
2241  221  193  100  1018  2019-03-14 09:01:27 
2242  224  201  77  1017  2019-03-14 10:01:30 
2243  225  206  77  1017  2019-03-14 11:01:28 
2244  226  211  77  1017  2019-03-14 12:01:27 
2245  231  224  77  1017  2019-03-14 13:01:29 
2246  231  229  77  1016  2019-03-14 14:01:28 
2247  232  229  77  1017  2019-03-14 15:01:30 
2248  236  225  76  1015  2019-03-14 16:01:29 
2249  235  216  75  1016  2019-03-14 17:01:27 
2250  236  204  74  1015  2019-03-14 18:01:30 
2251  234  194  74  1016  2019-03-14 19:01:28 
2252  231  186  74  1015  2019-03-14 20:01:27 
2253  232  186  74  1015  2019-03-14 21:01:29 
2254  231  186  74  1015  2019-03-14 22:01:28 
2255  222  186  75  1014  2019-03-14 23:02:17 
2256  222  186  75  1014  2019-03-14 23:02:28 
2257  226  194  74  1014  2019-03-15 00:01:29 
2258  226  191  74  1014  2019-03-15 01:01:27 
2259  225  191  73  1013  2019-03-15 02:01:30 
2260  223  186  73  1013  2019-03-15 03:01:28 
2261  221  181  73  1013  2019-03-15 04:01:31 
2262  220  179  73  1012  2019-03-15 05:01:29 
2263  216  173  73  1012  2019-03-15 06:01:27 
2264  216  175  73  1012  2019-03-15 07:01:29 
2265  219  181  74  1013  2019-03-15 08:01:28 
2266  224  197  75  1013  2019-03-15 09:01:30 
2267  227  216  76  1013  2019-03-15 10:01:29 
2268  234  225  76  1013  2019-03-15 11:01:27 
2269  236  239  75  1012  2019-03-15 12:01:30 
2270  239  248  75  1011  2019-03-15 13:01:28 
2271  244  261  73  1012  2019-03-15 14:01:27 
2272  250  267  71  1011  2019-03-15 15:01:29 
2273  254  264  71  1011  2019-03-15 16:01:28 
2274  256  256  70  1010  2019-03-15 17:01:30 
2275  256  241  70  1009  2019-03-15 18:01:29 
2276  256  232  71  1011  2019-03-15 19:01:27 
2277  251  223  72  1011  2019-03-15 20:01:29 
2278  247  216  71  1012  2019-03-15 21:01:28 
2279  247  210  71  1011  2019-03-15 22:01:30 
2280  246  206  71  1011  2019-03-15 23:01:28 
2281  245  201  72  1010  2019-03-16 00:01:27 
2282  242  201  71  1010  2019-03-16 01:01:29 
2283  241  196  71  1009  2019-03-16 02:01:28 
2284  239  195  71  1010  2019-03-16 03:01:30 
2285  237  191  71  1010  2019-03-16 04:01:29 
2286  237  186  71  1010  2019-03-16 05:01:27 
2287  235  186  71  1010  2019-03-16 06:01:29 
2288  233  182  71  1012  2019-03-16 07:01:28 
2289  225  186  72  1012  2019-03-16 08:01:30 
2290  228  196  73  1012  2019-03-16 09:01:29 
2291  234  211  73  1013  2019-03-16 10:01:27 
2292  239  216  73  1013  2019-03-16 11:01:30 
2293  246  231  72  1011  2019-03-16 12:01:28 
2294  251  243  72  1012  2019-03-16 13:01:31 
2295  251  256  72  1012  2019-03-16 14:01:29 
2296  252  260  72  1010  2019-03-16 16:11:31 
2297  256  251  70  1010  2019-03-16 17:01:29 
2298  256  241  70  1011  2019-03-16 18:01:27 
2299  247  225  70  1010  2019-03-16 19:01:30 
2300  256  211  70  1011  2019-03-16 20:01:28 
2301  251  211  70  1012  2019-03-16 21:01:31 
2302  251  206  70  1012  2019-03-16 22:01:29 
2303  243  201  71  1011  2019-03-17 00:16:55 
2304  241  195  67  1011  2019-03-17 01:01:27 
2305  241  196  67  1010  2019-03-17 02:01:30 
2306  237  194  67  1011  2019-03-17 03:01:28 
2307  240  191  67  1010  2019-03-17 04:01:27 
2308  231  176  71  1011  2019-03-17 06:13:02 
2309  230  176  67  1012  2019-03-17 07:01:30 
2310  231  184  67  1012  2019-03-17 08:01:28 
2311  226  196  67  1013  2019-03-17 09:01:31 
2312  236  211  67  1013  2019-03-17 10:01:29 
2313  236  221  70  1013  2019-03-17 11:01:28 
2314  236  231  67  1014  2019-03-17 12:01:30 
2315  236  263  71  1013  2019-03-17 14:26:31 
2316  237  261  70  1011  2019-03-17 15:01:28 
2317  241  256  70  1013  2019-03-17 16:01:31 
2318  243  250  71  1012  2019-03-17 17:01:29 
2319  246  236  72  1011  2019-03-17 18:01:28 
2320  241  221  72  1012  2019-03-17 19:01:30 
2321  241  216  72  1013  2019-03-17 20:01:29 
2322  236  209  73  1013  2019-03-17 22:23:48 
2323  238  206  72  1014  2019-03-17 23:01:30 
2324  236  201  72  1014  2019-03-18 00:01:28 
2325  234  196  72  1013  2019-03-18 01:01:30 
2326  231  194  72  1013  2019-03-18 02:01:29 
2327  231  191  72  1012  2019-03-18 03:01:27 
2328  230  191  72  1012  2019-03-18 04:01:30 
2329  226  189  72  1012  2019-03-18 05:01:28 
2330  226  186  72  1012  2019-03-18 06:01:31 
2331  226  186  73  1013  2019-03-18 07:01:29 
2332  226  192  73  1013  2019-03-18 08:01:27 
2333  230  201  74  1013  2019-03-18 09:01:30 
2334  232  211  74  1013  2019-03-18 10:01:28 
2335  236  216  75  1013  2019-03-18 11:01:31 
2336  236  223  76  1012  2019-03-18 12:01:29 
2337  241  241  100  1012  2019-03-18 14:22:02 
2338  246  251  77  1012  2019-03-18 15:01:31 
2339  250  246  76  1011  2019-03-18 16:01:29 
2340  249  241  76  1012  2019-03-18 17:01:27 
2341  246  231  76  1012  2019-03-18 18:01:30 
2342  245  219  77  1011  2019-03-18 19:01:28 
2343  248  212  76  1012  2019-03-18 20:01:31 
2344  243  210  76  1012  2019-03-18 22:14:54 
2345  241  208  74  1012  2019-03-18 23:01:30 
2346  241  202  74  1013  2019-03-19 00:01:29 
2347  238  201  74  1011  2019-03-19 01:01:27 
2348  238  196  74  1010  2019-03-19 02:01:30 
2349  236  191  74  1009  2019-03-19 03:01:29 
2350  226  181  74  1010  2019-03-19 06:07:42 
2351  223  181  74  1011  2019-03-19 07:01:30 
2352  226  186  73  1011  2019-03-19 08:01:29 
2353  231  196  73  1012  2019-03-19 09:01:27 
2354  231  220  74  1012  2019-03-19 10:01:30 
2355  232  226  75  1011  2019-03-19 11:01:29 
2356  238  241  77  1011  2019-03-19 12:01:27 
2357  246  263  77  1011  2019-03-19 14:45:32 
2358  246  266  76  1011  2019-03-19 15:01:29 
2359  251  261  72  1012  2019-03-19 16:01:28 
2360  247  248  74  1011  2019-03-19 17:01:30 
2361  246  238  74  1013  2019-03-19 18:01:29 
2362  245  225  73  1012  2019-03-19 19:01:31 
2363  250  217  75  1014  2019-03-19 20:01:30 
2364  241  211  75  1015  2019-03-19 22:46:29 
2365  241  207  74  1014  2019-03-19 23:01:29 
2366  241  202  73  1014  2019-03-20 00:01:32 
2367  239  201  73  1015  2019-03-20 01:01:30 
2368  236  196  73  1014  2019-03-20 02:01:29 
2369  232  191  72  1014  2019-03-20 03:01:27 
2370  231  191  72  1015  2019-03-20 04:01:30 
2371  229  187  72  1014  2019-03-20 05:01:28 
2372  228  184  72  1015  2019-03-20 06:01:31 
2373  226  181  72  1016  2019-03-20 07:01:29 
2374  223  186  71  1016  2019-03-20 08:01:31 
2375  224  191  72  1017  2019-03-20 09:01:30 
2376  221  197  72  1018  2019-03-20 10:01:28 
2377  226  211  72  1018  2019-03-20 11:01:30 
2378  229  226  72  1018  2019-03-20 12:01:29 
2379  230  226  70  1018  2019-03-20 14:13:39 
2380  231  228  65  1016  2019-03-20 15:01:29 
2381  229  224  65  1018  2019-03-20 16:01:27 
2382  227  216  65  1018  2019-03-20 17:01:30 
2383  231  201  62  1018  2019-03-20 18:01:29 
2384  227  189  63  1018  2019-03-20 19:01:31 
2385  226  181  64  1018  2019-03-20 20:01:29 
2386  216  171  65  1019  2019-03-20 22:25:36 
2387  216  166  64  1019  2019-03-20 23:01:31 
2388  213  161  64  1019  2019-03-21 00:01:29 
2389  211  161  64  1019  2019-03-21 01:01:31 
2390  211  158  64  1019  2019-03-21 02:01:29 
2391  201  151  65  1018  2019-03-21 04:11:56 
2392  201  149  64  1018  2019-03-21 05:01:29 
2393  200  146  64  1018  2019-03-21 06:01:31 
2394  197  145  64  1019  2019-03-21 07:01:29 
2395  197  151  64  1019  2019-03-21 08:01:31 
2396  201  166  65  1019  2019-03-21 09:01:30 
2397  201  180  65  1020  2019-03-21 10:01:28 
2398  211  206  67  1020  2019-03-21 12:20:32 
2399  212  211  65  1021  2019-03-21 13:01:30 
2400  217  222  65  1019  2019-03-21 14:01:29 
2401  221  229  65  1018  2019-03-21 15:01:31 
2402  225  223  64  1018  2019-03-21 16:01:30 
2403  226  226  65  1018  2019-03-21 17:01:28 
2404  226  205  66  1018  2019-03-21 18:01:30 
2405  223  186  71  1019  2019-03-21 20:14:51 
2406  222  181  70  1020  2019-03-21 21:01:31 
2407  221  177  70  1019  2019-03-21 22:01:30 
2408  216  176  70  1019  2019-03-21 23:01:28 
2409  215  176  70  1019  2019-03-22 00:01:31 
2410  214  175  70  1019  2019-03-22 01:01:29 
2411  211  171  70  1019  2019-03-22 02:01:31 

 

Home